Time;durP1;ratioP1;P1;durP2;ratioP2;P2;SDS_P1;SDS_P2;PMS_P1;PMS_P2;Temp;Humidity;BMP_temperature;BMP_pressure;BME280_temperature;BME280_humidity;BME280_pressure;Samples;Min_cycle;Max_cycle;Signal;HPM_P1;HPM_P2
2023/03/11 00:01:59;;;;;;;9.40;1.42;;;0.90;99.90;;;;;;5128022;28;20035;-68
2023/03/11 00:04:24;;;;;;;3.20;1.13;;;0.90;99.90;;;;;;5111802;28;20074;-68
2023/03/11 00:06:50;;;;;;;4.30;1.48;;;0.90;99.90;;;;;;5110871;28;20048;-68
2023/03/11 00:09:15;;;;;;;4.38;1.15;;;0.90;99.90;;;;;;5091086;28;20044;-68
2023/03/11 00:11:41;;;;;;;3.92;0.88;;;0.90;99.90;;;;;;5128742;28;20124;-69
2023/03/11 00:14:06;;;;;;;5.57;1.42;;;0.90;99.90;;;;;;5128876;28;20062;-68
2023/03/11 00:16:32;;;;;;;3.97;1.00;;;0.90;99.90;;;;;;5114817;28;20058;-69
2023/03/11 00:18:58;;;;;;;6.68;1.20;;;0.90;99.90;;;;;;5090900;28;20067;-68
2023/03/11 00:21:23;;;;;;;4.40;1.17;;;0.90;99.90;;;;;;5112323;28;20039;-68
2023/03/11 00:23:49;;;;;;;7.00;1.40;;;0.90;99.90;;;;;;5131019;27;20525;-68
2023/03/11 00:26:15;;;;;;;5.97;1.00;;;0.80;99.90;;;;;;5114737;27;20044;-68
2023/03/11 00:28:40;;;;;;;5.20;1.23;;;0.80;99.90;;;;;;5077770;28;20048;-68
2023/03/11 00:31:06;;;;;;;5.13;1.30;;;0.90;99.90;;;;;;5109619;28;20127;-68
2023/03/11 00:33:31;;;;;;;4.50;1.40;;;0.80;99.90;;;;;;5144327;27;20036;-68
2023/03/11 00:35:57;;;;;;;7.95;2.38;;;0.80;99.90;;;;;;5094620;28;20424;-68
2023/03/11 00:38:23;;;;;;;5.43;1.60;;;0.80;99.90;;;;;;5128689;27;20067;-68
2023/03/11 00:40:48;;;;;;;5.93;1.33;;;0.80;99.90;;;;;;5141496;27;20550;-68
2023/03/11 00:43:15;;;;;;;4.55;1.45;;;0.70;99.90;;;;;;5113129;28;20031;-68
2023/03/11 00:45:40;;;;;;;5.30;1.38;;;0.70;99.90;;;;;;5098002;28;20443;-68
2023/03/11 00:48:07;;;;;;;8.13;1.60;;;0.70;99.90;;;;;;5113297;27;20031;-68
2023/03/11 00:50:35;;;;;;;4.78;1.20;;;0.70;99.90;;;;;;5101366;28;20062;-68
2023/03/11 00:53:02;;;;;;;3.55;1.33;;;0.70;99.90;;;;;;5084172;28;20240;-68
2023/03/11 00:55:30;;;;;;;7.15;1.48;;;0.70;99.90;;;;;;5120129;27;20560;-68
2023/03/11 00:57:59;;;;;;;5.63;1.23;;;0.70;99.90;;;;;;5135041;27;20550;-68
2023/03/11 01:00:26;;;;;;;6.55;1.23;;;0.70;99.90;;;;;;5112644;27;20449;-68
2023/03/11 01:02:53;;;;;;;6.43;1.40;;;0.70;99.90;;;;;;5111117;28;20050;-69
2023/03/11 01:05:20;;;;;;;8.27;1.30;;;0.60;99.90;;;;;;5102914;28;20046;-68
2023/03/11 01:07:46;;;;;;;7.70;1.30;;;0.70;99.90;;;;;;5114346;28;20130;-68
2023/03/11 01:10:11;;;;;;;10.20;2.03;;;0.70;99.90;;;;;;5096201;28;20070;-69
2023/03/11 01:12:37;;;;;;;3.42;1.20;;;0.70;99.90;;;;;;5128458;27;20036;-69
2023/03/11 01:15:03;;;;;;;9.32;1.17;;;0.70;99.90;;;;;;5140007;27;20116;-69
2023/03/11 01:17:29;;;;;;;7.82;1.33;;;0.70;99.90;;;;;;5096871;28;20050;-69
2023/03/11 01:19:54;;;;;;;8.23;1.33;;;0.70;99.90;;;;;;5107040;28;20036;-69
2023/03/11 01:22:20;;;;;;;5.55;1.15;;;0.70;99.90;;;;;;5093610;28;20044;-68
2023/03/11 01:24:45;;;;;;;7.07;1.33;;;0.70;99.90;;;;;;5092932;27;20127;-69
2023/03/11 01:27:11;;;;;;;6.72;1.20;;;0.70;99.90;;;;;;5113402;28;20040;-69
2023/03/11 01:29:37;;;;;;;6.05;1.70;;;0.70;99.90;;;;;;5094066;28;20476;-68
2023/03/11 01:32:02;;;;;;;4.32;1.08;;;0.60;99.90;;;;;;5130823;27;20048;-68
2023/03/11 01:34:28;;;;;;;6.68;1.33;;;0.70;99.90;;;;;;5096839;28;20032;-68
2023/03/11 01:36:53;;;;;;;6.53;1.30;;;0.70;99.90;;;;;;5096846;28;20088;-68
2023/03/11 01:39:19;;;;;;;4.07;0.95;;;0.60;99.90;;;;;;5112227;28;20038;-68
2023/03/11 01:41:45;;;;;;;6.43;1.23;;;0.60;99.90;;;;;;5129969;27;20039;-68
2023/03/11 01:44:11;;;;;;;7.30;1.23;;;0.50;99.90;;;;;;5130754;27;20050;-68
2023/03/11 01:47:01;;;;;;;5.40;1.20;;;0.50;99.90;;;;;;5113620;28;20483;-68
2023/03/11 01:49:26;;;;;;;5.40;1.20;;;0.60;99.90;;;;;;5058290;28;20051;-68
2023/03/11 01:52:06;;;;;;;5.68;0.90;;;0.50;99.90;;;;;;5113142;28;20446;-68
2023/03/11 01:54:38;;;;;;;5.35;1.30;;;0.60;99.90;;;;;;5113535;28;20031;-68
2023/03/11 01:57:08;;;;;;;9.02;1.70;;;0.60;99.90;;;;;;5111713;28;20503;-68
2023/03/11 01:59:38;;;;;;;6.85;1.08;;;0.60;99.90;;;;;;5095600;28;20387;-68
2023/03/11 02:02:28;;;;;;;4.55;1.40;;;0.60;99.90;;;;;;5096510;28;20399;-68
2023/03/11 02:04:54;;;;;;;6.07;1.10;;;0.60;99.90;;;;;;5089500;28;20068;-68
2023/03/11 02:07:20;;;;;;;3.15;1.10;;;0.60;99.90;;;;;;5092902;28;20040;-68
2023/03/11 02:09:45;;;;;;;5.00;0.90;;;0.60;99.90;;;;;;5092331;28;20093;-68
2023/03/11 02:12:13;;;;;;;4.97;1.33;;;0.70;99.90;;;;;;5126656;27;20042;-68
2023/03/11 02:14:44;;;;;;;6.45;1.17;;;0.60;99.90;;;;;;5110137;27;20036;-68
2023/03/11 02:17:10;;;;;;;4.65;1.10;;;0.60;99.90;;;;;;5109929;28;20054;-68
2023/03/11 02:20:00;;;;;;;4.70;0.98;;;0.60;99.90;;;;;;5092458;28;20043;-68
2023/03/11 02:22:32;;;;;;;3.53;0.82;;;0.60;99.90;;;;;;5075912;28;20044;-68
2023/03/11 02:25:19;;;;;;;5.25;0.75;;;0.60;99.90;;;;;;5096278;28;20040;-69
2023/03/11 02:27:50;;;;;;;5.07;1.00;;;0.50;99.90;;;;;;5094890;28;20044;-68
2023/03/11 02:30:17;;;;;;;5.95;1.05;;;0.50;99.90;;;;;;5085129;28;20403;-69
2023/03/11 02:32:47;;;;;;;6.05;1.23;;;0.50;99.90;;;;;;5104712;28;20044;-69
2023/03/11 02:35:14;;;;;;;5.63;1.50;;;0.40;99.90;;;;;;5094755;28;20066;-69
2023/03/11 02:37:45;;;;;;;2.60;0.90;;;0.40;99.90;;;;;;5112380;28;20122;-69
2023/03/11 02:40:22;;;;;;;2.60;0.98;;;0.40;99.90;;;;;;5087084;28;20036;-69
2023/03/11 02:42:55;;;;;;;2.08;0.80;;;0.40;99.90;;;;;;5088579;28;20576;-68
2023/03/11 02:45:24;;;;;;;3.30;1.17;;;0.40;99.90;;;;;;5112081;28;20472;-68
2023/03/11 02:47:53;;;;;;;2.58;0.80;;;0.40;99.90;;;;;;5095600;28;20050;-68
2023/03/11 02:50:19;;;;;;;2.85;0.90;;;0.40;99.90;;;;;;5109935;28;20051;-68
2023/03/11 02:52:47;;;;;;;3.17;1.15;;;0.30;99.90;;;;;;5110677;28;20047;-69
2023/03/11 02:55:14;;;;;;;3.80;0.90;;;0.30;99.90;;;;;;5085659;28;20088;-68
2023/03/11 02:57:41;;;;;;;3.55;0.90;;;0.40;99.90;;;;;;5095452;28;20028;-69
2023/03/11 03:00:12;;;;;;;3.40;0.75;;;0.30;99.90;;;;;;5110457;28;20513;-68
2023/03/11 03:02:38;;;;;;;3.63;0.88;;;0.30;99.90;;;;;;5095384;28;20040;-69
2023/03/11 03:05:04;;;;;;;3.28;0.95;;;0.20;99.90;;;;;;5109140;28;20504;-68
2023/03/11 03:07:30;;;;;;;3.63;0.98;;;0.20;99.90;;;;;;5093468;28;20039;-68
2023/03/11 03:09:56;;;;;;;6.53;1.70;;;0.10;99.90;;;;;;5088494;28;20046;-67
2023/03/11 03:12:21;;;;;;;1.40;0.70;;;0.20;99.90;;;;;;5076561;28;20119;-68
2023/03/11 03:14:47;;;;;;;7.85;1.08;;;0.10;99.90;;;;;;5111013;28;20044;-68
2023/03/11 03:17:12;;;;;;;4.18;0.70;;;0.10;99.90;;;;;;5128607;28;20035;-69
2023/03/11 03:19:38;;;;;;;2.83;0.93;;;0.10;99.90;;;;;;5109173;28;20036;-69
2023/03/11 03:22:04;;;;;;;5.95;0.95;;;0.10;99.90;;;;;;5089092;28;20076;-68
2023/03/11 03:24:29;;;;;;;3.05;0.90;;;0.00;99.90;;;;;;5103476;28;20038;-68
2023/03/11 03:26:55;;;;;;;2.72;0.85;;;0.00;99.90;;;;;;5109281;28;20036;-68
2023/03/11 03:29:21;;;;;;;2.28;0.80;;;-0.10;99.90;;;;;;5092737;28;20039;-68
2023/03/11 03:31:46;;;;;;;4.38;0.85;;;-0.10;99.90;;;;;;5111769;28;20040;-69
2023/03/11 03:34:12;;;;;;;3.45;0.93;;;-0.10;99.90;;;;;;5111429;28;20161;-68
2023/03/11 03:36:38;;;;;;;2.90;0.77;;;-0.10;99.90;;;;;;5095161;28;20126;-68
2023/03/11 03:39:04;;;;;;;2.55;0.80;;;-0.20;99.90;;;;;;5105309;28;20508;-68
2023/03/11 03:41:30;;;;;;;3.35;1.00;;;-0.20;99.90;;;;;;5112142;28;20071;-68
2023/03/11 03:43:55;;;;;;;1.02;0.63;;;-0.20;99.90;;;;;;5110830;28;20124;-68
2023/03/11 03:46:21;;;;;;;5.13;1.35;;;-0.30;99.90;;;;;;5110279;28;20061;-68
2023/03/11 03:48:47;;;;;;;3.45;0.70;;;-0.30;99.90;;;;;;5093097;28;20035;-68
2023/03/11 03:51:13;;;;;;;4.47;0.77;;;-0.30;99.90;;;;;;5097733;28;20449;-68
2023/03/11 03:53:40;;;;;;;3.60;0.82;;;-0.30;99.90;;;;;;5095717;28;20036;-68
2023/03/11 03:56:11;;;;;;;2.72;0.82;;;-0.40;99.90;;;;;;5114994;28;20036;-68
2023/03/11 03:58:36;;;;;;;2.65;0.80;;;-0.40;99.90;;;;;;5097187;28;20078;-68
2023/03/11 04:01:03;;;;;;;2.47;0.80;;;-0.40;99.90;;;;;;5115876;28;20067;-68
2023/03/11 04:03:30;;;;;;;3.92;0.90;;;-0.40;99.90;;;;;;5114505;28;20039;-68
2023/03/11 04:06:26;;;;;;;5.63;0.90;;;-0.40;99.90;;;;;;5112961;28;20063;-68
2023/03/11 04:08:53;;;;;;;2.60;0.63;;;-0.50;99.90;;;;;;5101462;27;20100;-68
2023/03/11 04:11:19;;;;;;;1.10;0.60;;;-0.50;99.90;;;;;;5114651;28;20437;-68
2023/03/11 04:13:44;;;;;;;2.88;0.70;;;-0.50;99.90;;;;;;5115335;28;20126;-68
2023/03/11 04:16:17;;;;;;;1.20;0.45;;;-0.60;99.90;;;;;;5083942;28;20114;-68
2023/03/11 04:18:42;;;;;;;2.80;0.77;;;-0.60;99.90;;;;;;5104913;28;20031;-68
2023/03/11 04:21:08;;;;;;;3.63;0.65;;;-0.60;99.90;;;;;;5115629;28;20049;-68
2023/03/11 04:23:34;;;;;;;2.40;0.77;;;-0.70;99.90;;;;;;5095162;28;20036;-68
2023/03/11 04:26:00;;;;;;;3.35;0.80;;;-0.70;99.90;;;;;;5098436;28;20036;-68
2023/03/11 04:28:25;;;;;;;2.60;0.60;;;-0.70;99.90;;;;;;5086999;28;20047;-68
2023/03/11 04:30:51;;;;;;;2.22;0.77;;;-0.70;99.90;;;;;;5094700;28;20043;-68
2023/03/11 04:33:17;;;;;;;3.10;1.00;;;-0.80;99.90;;;;;;5077157;28;20032;-68
2023/03/11 04:35:42;;;;;;;2.08;0.80;;;-0.80;99.90;;;;;;5085113;28;20077;-68
2023/03/11 04:38:08;;;;;;;3.85;1.35;;;-0.90;99.90;;;;;;5136897;27;20511;-68
2023/03/11 04:40:33;;;;;;;3.50;0.90;;;-0.90;99.90;;;;;;5112617;27;20032;-68
2023/03/11 04:42:59;;;;;;;3.28;0.90;;;-0.90;99.90;;;;;;5077562;28;20044;-68
2023/03/11 04:45:24;;;;;;;6.30;1.20;;;-0.90;99.90;;;;;;5102472;28;20528;-68
2023/03/11 04:47:50;;;;;;;3.22;0.75;;;-1.00;99.90;;;;;;5113906;28;20058;-68
2023/03/11 04:50:17;;;;;;;2.42;0.80;;;-1.00;99.90;;;;;;5113789;28;20059;-68
2023/03/11 04:52:43;;;;;;;3.42;1.17;;;-1.00;99.90;;;;;;5096306;28;20492;-68
2023/03/11 04:55:09;;;;;;;4.30;1.10;;;-1.00;99.90;;;;;;5105852;28;20038;-68
2023/03/11 04:57:35;;;;;;;2.13;0.68;;;-1.00;99.90;;;;;;5110720;28;20046;-68
2023/03/11 05:00:01;;;;;;;1.73;0.65;;;-1.00;99.90;;;;;;5121300;27;20130;-68
2023/03/11 05:02:26;;;;;;;2.55;0.73;;;-1.00;99.90;;;;;;5096192;28;20035;-69
2023/03/11 05:04:52;;;;;;;2.00;0.73;;;-1.00;99.90;;;;;;5113629;28;20122;-68
2023/03/11 05:07:18;;;;;;;3.15;1.00;;;-1.10;99.90;;;;;;5113751;28;20046;-68
2023/03/11 05:09:43;;;;;;;2.50;0.70;;;-1.10;99.90;;;;;;5094379;28;20040;-68
2023/03/11 05:12:11;;;;;;;3.25;0.93;;;-1.10;99.90;;;;;;5111119;28;20047;-68
2023/03/11 05:14:37;;;;;;;1.85;0.70;;;-1.10;99.90;;;;;;5109188;28;20427;-68
2023/03/11 05:17:02;;;;;;;3.10;0.75;;;-1.10;99.90;;;;;;5128004;27;20100;-68
2023/03/11 05:19:31;;;;;;;2.65;0.95;;;-1.10;99.90;;;;;;5110059;27;20118;-69
2023/03/11 05:21:57;;;;;;;1.75;0.75;;;-1.20;99.90;;;;;;5093766;28;20048;-68
2023/03/11 05:24:25;;;;;;;4.97;1.02;;;-1.20;99.90;;;;;;5108776;28;20078;-68
2023/03/11 05:26:50;;;;;;;7.28;1.10;;;-1.20;99.90;;;;;;5114060;28;20053;-68
2023/03/11 05:29:16;;;;;;;7.93;1.50;;;-1.20;99.90;;;;;;5115046;27;20122;-68
2023/03/11 05:31:42;;;;;;;2.28;0.80;;;-1.30;99.90;;;;;;5092916;28;20050;-69
2023/03/11 05:34:08;;;;;;;4.20;1.10;;;-1.30;99.90;;;;;;5092469;28;20036;-68
2023/03/11 05:36:34;;;;;;;2.92;0.70;;;-1.40;99.90;;;;;;5110597;27;20043;-69
2023/03/11 05:38:59;;;;;;;2.63;0.80;;;-1.40;99.90;;;;;;5105393;28;20038;-69
2023/03/11 05:41:25;;;;;;;3.30;0.80;;;-1.40;99.90;;;;;;5131080;27;20043;-68
2023/03/11 05:43:50;;;;;;;4.25;0.80;;;-1.40;99.90;;;;;;5120412;27;20054;-68
2023/03/11 05:46:16;;;;;;;3.80;0.95;;;-1.40;99.90;;;;;;5109077;28;20105;-68
2023/03/11 05:48:41;;;;;;;3.28;0.88;;;-1.50;99.90;;;;;;5111293;28;20039;-68
2023/03/11 05:51:11;;;;;;;2.38;1.00;;;-1.50;99.90;;;;;;5096364;28;20090;-68
2023/03/11 05:53:37;;;;;;;5.10;1.55;;;-1.50;99.90;;;;;;5110552;28;20561;-68
2023/03/11 05:56:03;;;;;;;3.67;0.80;;;-1.50;99.90;;;;;;5111597;28;20043;-68
2023/03/11 05:58:30;;;;;;;4.05;0.85;;;-1.50;99.90;;;;;;5095318;28;20460;-69
2023/03/11 06:00:58;;;;;;;3.58;0.90;;;-1.50;99.90;;;;;;5128419;27;20047;-68
2023/03/11 06:03:23;;;;;;;1.23;0.70;;;-1.60;99.90;;;;;;5097857;28;20391;-68
2023/03/11 06:05:50;;;;;;;4.28;1.05;;;-1.60;99.90;;;;;;5095437;28;20036;-68
2023/03/11 06:08:16;;;;;;;2.35;0.90;;;-1.70;99.90;;;;;;5090586;28;20047;-68
2023/03/11 06:10:42;;;;;;;3.97;0.90;;;-1.60;99.90;;;;;;5113167;28;20040;-68
2023/03/11 06:13:08;;;;;;;1.30;0.90;;;-1.70;99.90;;;;;;5111601;28;20051;-68
2023/03/11 06:15:34;;;;;;;3.97;1.20;;;-1.70;99.90;;;;;;5107013;28;20390;-68
2023/03/11 06:18:01;;;;;;;4.60;1.10;;;-1.70;99.90;;;;;;5094714;28;20036;-68
2023/03/11 06:20:27;;;;;;;8.18;1.38;;;-1.70;99.90;;;;;;5112045;28;20054;-68
2023/03/11 06:22:52;;;;;;;2.83;1.00;;;-1.70;99.90;;;;;;5094108;28;20462;-68
2023/03/11 06:25:18;;;;;;;4.32;1.10;;;-1.70;99.90;;;;;;5091900;28;20123;-68
2023/03/11 06:27:49;;;;;;;3.45;1.35;;;-1.80;99.90;;;;;;5098683;28;20063;-69
2023/03/11 06:30:15;;;;;;;2.25;0.98;;;-1.80;99.90;;;;;;5075794;28;20047;-69
2023/03/11 06:32:43;;;;;;;3.75;0.95;;;-1.80;99.90;;;;;;5095464;28;20035;-69
2023/03/11 06:35:09;;;;;;;6.07;1.17;;;-1.80;99.90;;;;;;5100452;28;20126;-69
2023/03/11 06:37:36;;;;;;;3.17;0.90;;;-1.80;99.90;;;;;;5097242;28;20446;-69
2023/03/11 06:40:04;;;;;;;2.08;0.82;;;-1.80;99.90;;;;;;5094864;28;20438;-69
2023/03/11 06:42:29;;;;;;;5.60;1.23;;;-1.80;99.90;;;;;;5092658;28;20051;-69
2023/03/11 06:44:55;;;;;;;2.63;0.90;;;-1.80;99.90;;;;;;5113671;27;20441;-69
2023/03/11 06:47:20;;;;;;;2.83;1.00;;;-1.80;99.90;;;;;;5112214;28;20044;-69
2023/03/11 06:49:46;;;;;;;3.20;0.90;;;-1.70;99.90;;;;;;5092098;28;20494;-70
2023/03/11 06:52:12;;;;;;;2.78;1.02;;;-1.70;99.90;;;;;;5112006;28;20040;-70
2023/03/11 06:54:37;;;;;;;5.07;1.50;;;-1.70;99.90;;;;;;5108545;28;20034;-69
2023/03/11 06:57:06;;;;;;;3.05;1.05;;;-1.70;99.90;;;;;;5083084;28;20399;-69
2023/03/11 06:59:32;;;;;;;4.20;1.10;;;-1.70;99.90;;;;;;5090803;28;20038;-70
2023/03/11 07:01:58;;;;;;;3.65;0.93;;;-1.70;99.90;;;;;;5084112;28;21411;-70
2023/03/11 07:04:23;;;;;;;2.90;1.13;;;-1.70;99.90;;;;;;5110258;28;20057;-70
2023/03/11 07:06:49;;;;;;;3.80;1.02;;;-1.60;99.90;;;;;;5093710;28;20093;-70
2023/03/11 07:09:14;;;;;;;3.67;1.10;;;-1.50;99.90;;;;;;5116911;28;20039;-70
2023/03/11 07:11:40;;;;;;;3.20;1.17;;;-1.50;99.90;;;;;;5108299;28;20043;-70
2023/03/11 07:14:06;;;;;;;3.13;0.90;;;-1.60;99.90;;;;;;5104422;28;20042;-70
2023/03/11 07:16:31;;;;;;;4.00;1.10;;;-1.50;99.90;;;;;;5106699;28;20448;-70
2023/03/11 07:18:59;;;;;;;7.30;1.83;;;-1.50;99.90;;;;;;5111612;28;20074;-68
2023/03/11 07:21:26;;;;;;;3.60;1.00;;;-1.40;99.90;;;;;;5110795;28;20675;-68
2023/03/11 07:23:54;;;;;;;3.80;1.30;;;-1.40;99.90;;;;;;5123656;27;20050;-68
2023/03/11 07:26:21;;;;;;;5.30;1.20;;;-1.30;99.90;;;;;;5087571;28;20495;-68
2023/03/11 07:28:48;;;;;;;3.38;1.10;;;-1.30;99.90;;;;;;5103870;28;20040;-68
2023/03/11 07:31:16;;;;;;;3.42;1.35;;;-1.30;99.90;;;;;;5132725;27;20047;-68
2023/03/11 07:33:42;;;;;;;4.93;1.15;;;-1.20;99.90;;;;;;5107107;28;20084;-68
2023/03/11 07:36:11;;;;;;;3.05;1.30;;;-1.20;99.90;;;;;;5127323;27;20067;-68
2023/03/11 07:38:37;;;;;;;6.28;1.30;;;-1.10;99.90;;;;;;5104166;28;20495;-68
2023/03/11 07:41:03;;;;;;;4.70;1.30;;;-1.00;99.90;;;;;;5111764;28;20038;-69
2023/03/11 07:43:29;;;;;;;4.93;1.20;;;-0.90;99.90;;;;;;5111244;27;20119;-69
2023/03/11 07:46:21;;;;;;;5.45;1.30;;;-0.90;99.90;;;;;;5101997;28;20127;-70
2023/03/11 07:48:48;;;;;;;6.20;1.15;;;-0.90;99.90;;;;;;5105965;28;20400;-69
2023/03/11 07:51:20;;;;;;;4.15;1.40;;;-0.80;99.90;;;;;;5102046;28;20051;-69
2023/03/11 07:53:46;;;;;;;5.72;1.60;;;-0.70;99.90;;;;;;5103740;28;20052;-69
2023/03/11 07:56:13;;;;;;;6.63;1.65;;;-0.70;99.90;;;;;;5120263;27;20412;-69
2023/03/11 07:58:40;;;;;;;2.83;1.30;;;-0.70;99.90;;;;;;5082002;28;20403;-69
2023/03/11 08:01:09;;;;;;;4.75;1.20;;;-0.60;99.90;;;;;;5113692;27;20040;-69
2023/03/11 08:03:35;;;;;;;4.68;1.48;;;-0.50;99.90;;;;;;5077925;28;20075;-69
2023/03/11 08:06:00;;;;;;;4.38;1.08;;;-0.40;99.90;;;;;;5109059;28;20082;-70
2023/03/11 08:08:26;;;;;;;4.35;1.25;;;-0.30;99.90;;;;;;5106296;28;20479;-70
2023/03/11 08:10:52;;;;;;;3.60;1.38;;;-0.20;99.90;;;;;;5112227;28;20047;-70
2023/03/11 08:13:17;;;;;;;5.80;1.63;;;-0.10;99.90;;;;;;5130394;27;20123;-69
2023/03/11 08:15:43;;;;;;;4.95;1.50;;;0.00;99.90;;;;;;5111202;28;20122;-69
2023/03/11 08:18:09;;;;;;;5.43;1.42;;;0.10;99.90;;;;;;5089994;28;20123;-69
2023/03/11 08:20:37;;;;;;;4.68;1.20;;;0.10;99.90;;;;;;5077647;28;20507;-69
2023/03/11 08:23:03;;;;;;;5.03;1.20;;;0.20;99.90;;;;;;5101222;28;20044;-69
2023/03/11 08:25:29;;;;;;;4.57;1.40;;;0.20;99.90;;;;;;5079642;28;20403;-69
2023/03/11 08:27:55;;;;;;;4.93;1.00;;;0.30;99.90;;;;;;5105503;27;20399;-68
2023/03/11 08:30:21;;;;;;;7.90;1.42;;;0.30;99.90;;;;;;5107069;28;20112;-69
2023/03/11 08:32:48;;;;;;;3.60;1.17;;;0.30;99.90;;;;;;5144282;27;20483;-69
2023/03/11 08:35:14;;;;;;;5.45;1.30;;;0.40;99.90;;;;;;5104008;28;20503;-69
2023/03/11 08:37:39;;;;;;;3.90;1.30;;;0.40;99.90;;;;;;5084898;28;20361;-69
2023/03/11 08:40:06;;;;;;;4.05;1.30;;;0.50;99.90;;;;;;5097617;28;20057;-69
2023/03/11 08:42:32;;;;;;;4.78;1.55;;;0.70;99.90;;;;;;5088155;28;20447;-69
2023/03/11 08:44:57;;;;;;;4.45;1.17;;;0.80;99.90;;;;;;5114833;28;20066;-69
2023/03/11 08:47:23;;;;;;;5.88;1.70;;;0.80;99.90;;;;;;5114450;28;20074;-69
2023/03/11 08:49:48;;;;;;;4.82;1.30;;;0.90;99.90;;;;;;5112089;28;20043;-69
2023/03/11 08:52:14;;;;;;;3.58;1.30;;;0.90;99.90;;;;;;5111907;27;20044;-69
2023/03/11 08:54:40;;;;;;;5.13;1.60;;;1.00;99.90;;;;;;5103569;28;20035;-69
2023/03/11 08:57:05;;;;;;;4.90;1.30;;;1.10;99.90;;;;;;5113397;28;20036;-68
2023/03/11 08:59:31;;;;;;;3.63;1.50;;;1.20;99.90;;;;;;5104030;27;20498;-69
2023/03/11 09:01:57;;;;;;;5.57;1.70;;;1.30;99.90;;;;;;5110881;27;20079;-69
2023/03/11 09:04:22;;;;;;;4.25;1.17;;;1.40;99.90;;;;;;5081564;28;20035;-69
2023/03/11 09:06:48;;;;;;;5.18;1.48;;;1.50;99.90;;;;;;5131599;27;20437;-69
2023/03/11 09:09:20;;;;;;;4.55;1.40;;;1.60;99.90;;;;;;5090801;28;20039;-69
2023/03/11 09:11:47;;;;;;;4.50;2.05;;;1.60;99.90;;;;;;5097851;28;20048;-69
2023/03/11 09:14:13;;;;;;;4.07;1.45;;;1.70;99.90;;;;;;5124279;27;20036;-69
2023/03/11 09:16:39;;;;;;;6.15;1.60;;;1.80;99.90;;;;;;5095719;28;20403;-69
2023/03/11 09:19:06;;;;;;;3.55;1.40;;;1.90;99.90;;;;;;5092904;28;20047;-69
2023/03/11 09:21:33;;;;;;;5.05;1.48;;;1.90;99.90;;;;;;5088925;28;20392;-69
2023/03/11 09:23:59;;;;;;;7.65;1.35;;;2.00;99.90;;;;;;5101329;28;20040;-69
2023/03/11 09:26:25;;;;;;;7.05;1.55;;;2.10;99.90;;;;;;5110104;28;20046;-69
2023/03/11 09:28:51;;;;;;;3.55;1.15;;;2.20;99.90;;;;;;5113557;28;20040;-69
2023/03/11 09:31:17;;;;;;;3.08;1.10;;;2.40;99.90;;;;;;5095584;28;20035;-69
2023/03/11 09:33:43;;;;;;;7.65;1.23;;;2.40;99.90;;;;;;5108033;27;20063;-69
2023/03/11 09:36:14;;;;;;;4.78;1.40;;;2.50;99.90;;;;;;5101695;28;20035;-85
2023/03/11 09:38:41;;;;;;;5.40;1.42;;;2.60;99.90;;;;;;5087662;28;20118;-70
2023/03/11 09:41:20;;;;;;;6.03;1.33;;;2.70;99.90;;;;;;5108131;28;20047;-69
2023/03/11 09:43:58;;;;;;;6.97;1.33;;;2.70;99.90;;;;;;5105770;28;20475;-69
2023/03/11 09:47:01;;;;;;;7.57;1.45;;;2.80;99.90;;;;;;5086924;28;20032;-69
2023/03/11 09:49:37;;;;;;;9.02;1.77;;;2.90;99.90;;;;;;5093554;28;20063;-69
2023/03/11 09:52:12;;;;;;;6.63;1.65;;;3.00;99.90;;;;;;5140839;27;20122;-69
2023/03/11 09:54:58;;;;;;;5.47;1.30;;;3.00;99.90;;;;;;5129316;27;20492;-69
2023/03/11 09:57:32;;;;;;;4.78;1.30;;;3.10;99.90;;;;;;5106307;27;20044;-70
2023/03/11 10:00:00;;;;;;;4.97;1.13;;;3.10;99.90;;;;;;5098156;28;20055;-69
2023/03/11 10:02:26;;;;;;;3.72;1.30;;;3.20;99.90;;;;;;5094570;28;20131;-70
2023/03/11 10:05:33;;;;;;;5.00;1.27;;;3.30;99.90;;;;;;5093025;28;20245;-69
2023/03/11 10:08:10;;;;;;;7.90;1.55;;;3.30;99.90;;;;;;5049225;28;20055;-69
2023/03/11 10:10:48;;;;;;;5.63;1.48;;;3.20;99.90;;;;;;5051109;28;20097;-69
2023/03/11 10:13:36;;;;;;;6.55;1.77;;;3.30;99.90;;;;;;5068399;28;20052;-69
2023/03/11 10:16:54;;;;;;;5.03;1.20;;;3.30;99.90;;;;;;5091624;28;20036;-69
2023/03/11 10:19:43;;;;;;;4.82;1.55;;;3.40;99.90;;;;;;5071686;28;20511;-69
2023/03/11 10:22:13;;;;;;;6.43;1.70;;;3.40;99.90;;;;;;5064454;28;20043;-70
2023/03/11 10:24:57;;;;;;;7.38;1.55;;;3.50;99.90;;;;;;5095574;28;20059;-69
2023/03/11 10:27:30;;;;;;;4.60;1.40;;;3.50;99.90;;;;;;5135669;27;20047;-69
2023/03/11 10:30:05;;;;;;;4.45;1.40;;;3.70;99.90;;;;;;5125841;27;20040;-69
2023/03/11 10:32:40;;;;;;;4.78;1.45;;;3.80;99.90;;;;;;5079391;28;20047;-69
2023/03/11 10:35:15;;;;;;;4.13;1.33;;;4.00;99.90;;;;;;5139823;27;20064;-70
2023/03/11 10:38:15;;;;;;;6.80;1.45;;;4.10;99.90;;;;;;5092021;28;20042;-70
2023/03/11 10:40:46;;;;;;;5.15;1.77;;;4.20;99.90;;;;;;5095653;28;20035;-70
2023/03/11 10:43:35;;;;;;;4.10;1.30;;;4.20;99.90;;;;;;5095644;28;20044;-68
2023/03/11 10:46:06;;;;;;;4.68;1.48;;;4.20;99.90;;;;;;5112661;28;20077;-69
2023/03/11 10:48:31;;;;;;;9.35;1.40;;;4.30;99.90;;;;;;5112441;28;20495;-68
2023/03/11 10:51:08;;;;;;;3.88;1.30;;;4.40;99.90;;;;;;5123669;27;20066;-69
2023/03/11 10:53:48;;;;;;;4.28;1.17;;;4.50;99.90;;;;;;5108923;28;20053;-69
2023/03/11 10:56:35;;;;;;;5.30;1.40;;;4.60;99.90;;;;;;5075337;28;20035;-69
2023/03/11 10:59:04;;;;;;;5.07;1.42;;;4.60;99.90;;;;;;5091692;28;20044;-69
2023/03/11 11:01:30;;;;;;;3.97;1.05;;;4.60;99.90;;;;;;5075213;28;20483;-69
2023/03/11 11:03:59;;;;;;;5.00;1.23;;;4.70;99.90;;;;;;5075121;28;20511;-69
2023/03/11 11:06:33;;;;;;;6.50;1.20;;;4.70;99.90;;;;;;5075156;28;20053;-70
2023/03/11 11:09:18;;;;;;;5.82;1.50;;;4.60;99.90;;;;;;5091681;28;20500;-70
2023/03/11 11:12:13;;;;;;;6.15;1.30;;;4.50;99.90;;;;;;5075054;28;20048;-70
2023/03/11 11:14:47;;;;;;;4.35;1.20;;;4.50;99.90;;;;;;5091921;28;20036;-69
2023/03/11 11:17:40;;;;;;;4.57;1.23;;;4.50;99.90;;;;;;5074974;28;20506;-69
2023/03/11 11:20:18;;;;;;;5.10;0.85;;;4.50;99.90;;;;;;5072701;28;20097;-69
2023/03/11 11:22:51;;;;;;;3.75;1.00;;;4.60;99.90;;;;;;5075065;28;20039;-69
2023/03/11 11:25:35;;;;;;;5.25;1.10;;;4.50;99.90;;;;;;5092173;28;20043;-69
2023/03/11 11:28:16;;;;;;;4.53;1.10;;;4.40;99.90;;;;;;5125905;28;20075;-69
2023/03/11 11:30:57;;;;;;;3.13;1.00;;;4.50;99.90;;;;;;5093291;28;20491;-69
2023/03/11 11:33:35;;;;;;;4.47;1.00;;;4.50;99.90;;;;;;5095087;28;20039;-69
2023/03/11 11:36:03;;;;;;;3.75;1.05;;;4.40;99.90;;;;;;5095419;28;20507;-69
2023/03/11 11:38:30;;;;;;;3.47;0.88;;;4.50;99.90;;;;;;5112256;28;20456;-69
2023/03/11 11:41:00;;;;;;;1.55;0.80;;;4.50;99.90;;;;;;5110993;28;20032;-69
2023/03/11 11:43:52;;;;;;;4.20;0.90;;;4.50;99.90;;;;;;5099447;28;20038;-69
2023/03/11 11:46:30;;;;;;;4.63;1.10;;;4.40;99.90;;;;;;5074964;28;20036;-69
2023/03/11 11:49:00;;;;;;;6.30;1.20;;;4.60;99.90;;;;;;5091677;28;20046;-69
2023/03/11 11:51:32;;;;;;;3.88;1.80;;;4.70;99.90;;;;;;5091368;28;20134;-69
2023/03/11 11:54:07;;;;;;;;;;;4.70;99.90;;;;;;5092024;28;20507;-69
2023/03/11 11:56:33;;;;;;;4.18;1.55;;;4.70;99.90;;;;;;5125725;28;19922;-69
2023/03/11 11:58:59;;;;;;;3.50;1.10;;;4.70;99.90;;;;;;5092288;28;20102;-69
2023/03/11 12:01:45;;;;;;;3.95;1.10;;;4.60;99.90;;;;;;5090281;28;20032;-68
2023/03/11 12:04:29;;;;;;;6.18;1.30;;;4.60;99.90;;;;;;5098939;28;20044;-68
2023/03/11 12:07:10;;;;;;;7.20;1.38;;;4.60;99.90;;;;;;5125931;28;20396;-68
2023/03/11 12:10:11;;;;;;;4.30;1.10;;;4.60;99.90;;;;;;5133601;27;20032;-68
2023/03/11 12:12:59;;;;;;;2.83;0.80;;;4.80;99.90;;;;;;5117760;27;20139;-68
2023/03/11 12:15:43;;;;;;;5.28;1.38;;;4.90;99.90;;;;;;5117497;27;20055;-68
2023/03/11 12:18:34;;;;;;;6.03;1.30;;;4.80;99.90;;;;;;5096646;27;20032;-69
2023/03/11 12:21:26;;;;;;;2.80;0.70;;;4.70;99.90;;;;;;5143679;27;20039;-69
2023/03/11 12:24:07;;;;;;;5.65;1.40;;;4.80;99.90;;;;;;5053002;28;20047;-69
2023/03/11 12:26:36;;;;;;;6.88;1.30;;;4.70;99.90;;;;;;5126016;27;20060;-69
2023/03/11 12:29:30;;;;;;;4.85;1.10;;;4.80;99.90;;;;;;5083534;28;20492;-69
2023/03/11 12:31:56;;;;;;;4.75;1.10;;;4.80;99.90;;;;;;5099637;28;20486;-69
2023/03/11 12:34:23;;;;;;;4.25;1.08;;;4.80;99.90;;;;;;5109822;28;20035;-69
2023/03/11 12:36:51;;;;;;;3.28;0.80;;;4.80;99.90;;;;;;5077313;28;20055;-68
2023/03/11 12:39:19;;;;;;;3.05;1.00;;;5.00;99.90;;;;;;5099465;28;20035;-69
2023/03/11 12:41:45;;;;;;;7.63;1.13;;;5.00;99.90;;;;;;5126223;27;20039;-68
2023/03/11 12:44:27;;;;;;;3.83;1.20;;;4.90;99.90;;;;;;5105511;28;20117;-68
2023/03/11 12:46:53;;;;;;;4.50;1.10;;;4.90;99.90;;;;;;5118929;27;20040;-69
2023/03/11 12:49:29;;;;;;;4.47;0.85;;;4.90;99.90;;;;;;5096323;28;20039;-69
2023/03/11 12:52:10;;;;;;;4.05;0.93;;;5.00;99.90;;;;;;5078312;28;20071;-69
2023/03/11 12:54:40;;;;;;;6.05;0.98;;;4.90;99.90;;;;;;5092358;27;20089;-69
2023/03/11 12:57:15;;;;;;;4.38;0.82;;;5.00;99.90;;;;;;5097138;28;20119;-69
2023/03/11 13:00:18;;;;;;;4.07;0.80;;;4.90;99.90;;;;;;5091722;28;20040;-69
2023/03/11 13:03:07;;;;;;;3.17;0.70;;;4.90;99.90;;;;;;5093961;28;20036;-69
2023/03/11 13:05:53;;;;;;;6.82;0.80;;;4.90;99.90;;;;;;5142305;27;20540;-69
2023/03/11 13:08:25;;;;;;;2.42;0.60;;;4.90;99.90;;;;;;5136714;27;20139;-69